sensor_id;sensor_type;location;lat;lon;timestamp;pressure;altitude;pressure_sealevel;temperature;humidity
61528;BME280;47395;42.032;-8.634;2022-12-07T00:01:45;100933.28;;;11.91;74.68
61528;BME280;47395;42.032;-8.634;2022-12-07T00:03:47;100927.16;;;11.91;74.94
61528;BME280;47395;42.032;-8.634;2022-12-07T00:05:48;100928.78;;;11.93;74.97
61528;BME280;47395;42.032;-8.634;2022-12-07T00:07:50;100918.91;;;11.97;75.09
61528;BME280;47395;42.032;-8.634;2022-12-07T00:09:50;100920.00;;;11.93;74.91
61528;BME280;47395;42.032;-8.634;2022-12-07T00:11:51;100915.66;;;11.92;74.87
61528;BME280;47395;42.032;-8.634;2022-12-07T00:13:58;100918.56;;;11.87;74.93
61528;BME280;47395;42.032;-8.634;2022-12-07T00:16:04;100925.22;;;11.94;74.68
61528;BME280;47395;42.032;-8.634;2022-12-07T00:18:05;100920.81;;;11.77;74.73
61528;BME280;47395;42.032;-8.634;2022-12-07T00:20:07;100913.03;;;11.92;74.63
61528;BME280;47395;42.032;-8.634;2022-12-07T00:22:08;100909.16;;;11.81;74.44
61528;BME280;47395;42.032;-8.634;2022-12-07T00:24:10;100909.22;;;11.97;74.56
61528;BME280;47395;42.032;-8.634;2022-12-07T00:26:31;100911.50;;;12.05;74.04
61528;BME280;47395;42.032;-8.634;2022-12-07T00:28:35;100906.06;;;12.08;74.22
61528;BME280;47395;42.032;-8.634;2022-12-07T00:30:36;100911.88;;;12.15;74.05
61528;BME280;47395;42.032;-8.634;2022-12-07T00:32:37;100902.31;;;12.12;73.94
61528;BME280;47395;42.032;-8.634;2022-12-07T00:34:37;100907.34;;;11.99;74.43
61528;BME280;47395;42.032;-8.634;2022-12-07T00:36:38;100903.34;;;12.10;73.91
61528;BME280;47395;42.032;-8.634;2022-12-07T00:38:39;100899.06;;;11.90;74.18
61528;BME280;47395;42.032;-8.634;2022-12-07T00:40:40;100890.38;;;12.05;74.20
61528;BME280;47395;42.032;-8.634;2022-12-07T00:42:41;100882.97;;;12.12;74.14
61528;BME280;47395;42.032;-8.634;2022-12-07T00:44:42;100886.09;;;11.85;74.01
61528;BME280;47395;42.032;-8.634;2022-12-07T00:46:43;100880.44;;;11.75;74.88
61528;BME280;47395;42.032;-8.634;2022-12-07T00:48:46;100880.47;;;11.91;74.25
61528;BME280;47395;42.032;-8.634;2022-12-07T00:50:48;100878.59;;;11.77;74.74
61528;BME280;47395;42.032;-8.634;2022-12-07T00:52:49;100878.31;;;11.82;74.43
61528;BME280;47395;42.032;-8.634;2022-12-07T00:54:50;100871.41;;;11.79;74.38
61528;BME280;47395;42.032;-8.634;2022-12-07T00:56:50;100869.50;;;11.83;74.41
61528;BME280;47395;42.032;-8.634;2022-12-07T00:58:56;100870.09;;;11.88;74.17
61528;BME280;47395;42.032;-8.634;2022-12-07T01:01:00;100866.59;;;11.87;73.81
61528;BME280;47395;42.032;-8.634;2022-12-07T01:03:02;100866.28;;;11.94;73.68
61528;BME280;47395;42.032;-8.634;2022-12-07T01:05:04;100862.34;;;11.85;74.01
61528;BME280;47395;42.032;-8.634;2022-12-07T01:07:05;100864.75;;;11.90;73.83
61528;BME280;47395;42.032;-8.634;2022-12-07T01:09:05;100854.81;;;11.77;74.02
61528;BME280;47395;42.032;-8.634;2022-12-07T01:11:08;100858.69;;;11.70;73.70
61528;BME280;47395;42.032;-8.634;2022-12-07T01:13:10;100858.00;;;11.66;74.08
61528;BME280;47395;42.032;-8.634;2022-12-07T01:15:11;100858.28;;;11.78;73.65
61528;BME280;47395;42.032;-8.634;2022-12-07T01:17:12;100859.84;;;11.82;73.49
61528;BME280;47395;42.032;-8.634;2022-12-07T01:19:13;100862.34;;;11.85;73.35
61528;BME280;47395;42.032;-8.634;2022-12-07T01:21:25;100864.13;;;11.84;73.35
61528;BME280;47395;42.032;-8.634;2022-12-07T01:23:27;100861.94;;;11.93;73.36
61528;BME280;47395;42.032;-8.634;2022-12-07T01:25:28;100862.56;;;11.98;73.15
61528;BME280;47395;42.032;-8.634;2022-12-07T01:27:29;100870.31;;;12.01;72.88
61528;BME280;47395;42.032;-8.634;2022-12-07T01:29:29;100872.78;;;12.04;72.94
61528;BME280;47395;42.032;-8.634;2022-12-07T01:31:31;100865.03;;;12.01;72.94
61528;BME280;47395;42.032;-8.634;2022-12-07T01:33:34;100862.09;;;12.07;72.76
61528;BME280;47395;42.032;-8.634;2022-12-07T01:35:35;100863.53;;;12.13;72.64
61528;BME280;47395;42.032;-8.634;2022-12-07T01:37:37;100860.66;;;12.18;72.72
61528;BME280;47395;42.032;-8.634;2022-12-07T01:39:38;100862.28;;;12.20;72.43
61528;BME280;47395;42.032;-8.634;2022-12-07T01:41:40;100864.19;;;12.18;72.43
61528;BME280;47395;42.032;-8.634;2022-12-07T01:44:21;100860.75;;;12.16;72.65
61528;BME280;47395;42.032;-8.634;2022-12-07T01:46:22;100859.66;;;12.20;72.64
61528;BME280;47395;42.032;-8.634;2022-12-07T01:48:42;100861.28;;;12.23;72.58
61528;BME280;47395;42.032;-8.634;2022-12-07T01:50:45;100857.69;;;12.24;72.65
61528;BME280;47395;42.032;-8.634;2022-12-07T01:52:49;100856.41;;;12.15;72.75
61528;BME280;47395;42.032;-8.634;2022-12-07T01:54:56;100853.50;;;12.20;72.66
61528;BME280;47395;42.032;-8.634;2022-12-07T01:56:59;100851.44;;;12.09;72.24
61528;BME280;47395;42.032;-8.634;2022-12-07T01:59:00;100850.19;;;12.16;72.32
61528;BME280;47395;42.032;-8.634;2022-12-07T02:01:01;100849.03;;;12.04;72.73
61528;BME280;47395;42.032;-8.634;2022-12-07T02:03:31;100850.13;;;12.00;72.31
61528;BME280;47395;42.032;-8.634;2022-12-07T02:05:30;100854.09;;;11.91;72.88
61528;BME280;47395;42.032;-8.634;2022-12-07T02:07:31;100850.19;;;11.98;73.03
61528;BME280;47395;42.032;-8.634;2022-12-07T02:09:33;100840.81;;;11.93;72.61
61528;BME280;47395;42.032;-8.634;2022-12-07T02:11:34;100846.75;;;11.80;72.92
61528;BME280;47395;42.032;-8.634;2022-12-07T02:13:37;100848.97;;;11.88;72.70
61528;BME280;47395;42.032;-8.634;2022-12-07T02:16:22;100848.91;;;11.90;72.84
61528;BME280;47395;42.032;-8.634;2022-12-07T02:26:09;100856.22;;;11.49;72.35
61528;BME280;47395;42.032;-8.634;2022-12-07T02:28:35;100851.25;;;11.43;73.02
61528;BME280;47395;42.032;-8.634;2022-12-07T02:30:41;100852.81;;;11.65;73.24
61528;BME280;47395;42.032;-8.634;2022-12-07T02:35:26;100844.88;;;11.82;72.67
61528;BME280;47395;42.032;-8.634;2022-12-07T02:37:40;100851.59;;;11.54;72.96
61528;BME280;47395;42.032;-8.634;2022-12-07T02:39:51;100856.78;;;11.56;72.98
61528;BME280;47395;42.032;-8.634;2022-12-07T02:42:05;100859.50;;;11.54;73.36
61528;BME280;47395;42.032;-8.634;2022-12-07T02:44:10;100860.66;;;11.66;73.36
61528;BME280;47395;42.032;-8.634;2022-12-07T02:46:17;100862.81;;;11.58;73.34
61528;BME280;47395;42.032;-8.634;2022-12-07T02:48:19;100863.97;;;11.70;73.32
61528;BME280;47395;42.032;-8.634;2022-12-07T02:50:20;100862.03;;;11.73;72.75
61528;BME280;47395;42.032;-8.634;2022-12-07T02:52:22;100862.75;;;11.59;72.97
61528;BME280;47395;42.032;-8.634;2022-12-07T02:54:23;100857.69;;;11.72;72.75
61528;BME280;47395;42.032;-8.634;2022-12-07T02:59:14;100847.91;;;11.74;72.28
61528;BME280;47395;42.032;-8.634;2022-12-07T03:01:50;100846.97;;;11.75;72.07
61528;BME280;47395;42.032;-8.634;2022-12-07T03:06:38;100841.78;;;11.74;72.07
61528;BME280;47395;42.032;-8.634;2022-12-07T03:09:20;100841.78;;;11.56;71.83
61528;BME280;47395;42.032;-8.634;2022-12-07T03:11:48;100839.41;;;11.52;71.75
61528;BME280;47395;42.032;-8.634;2022-12-07T03:13:59;100840.72;;;11.25;73.15
61528;BME280;47395;42.032;-8.634;2022-12-07T03:16:24;100829.53;;;11.02;72.24
61528;BME280;47395;42.032;-8.634;2022-12-07T03:18:29;100831.94;;;11.25;72.81
61528;BME280;47395;42.032;-8.634;2022-12-07T03:20:32;100835.59;;;11.40;72.46
61528;BME280;47395;42.032;-8.634;2022-12-07T03:22:38;100828.13;;;11.48;72.44
61528;BME280;47395;42.032;-8.634;2022-12-07T03:24:53;100825.81;;;11.42;72.44
61528;BME280;47395;42.032;-8.634;2022-12-07T03:27:01;100821.78;;;11.52;72.03
61528;BME280;47395;42.032;-8.634;2022-12-07T03:29:17;100823.41;;;11.55;72.06
61528;BME280;47395;42.032;-8.634;2022-12-07T03:31:23;100822.56;;;11.54;71.96
61528;BME280;47395;42.032;-8.634;2022-12-07T03:33:30;100814.72;;;11.53;71.79
61528;BME280;47395;42.032;-8.634;2022-12-07T03:35:39;100823.56;;;11.52;71.74
61528;BME280;47395;42.032;-8.634;2022-12-07T03:37:48;100813.78;;;11.54;71.67
61528;BME280;47395;42.032;-8.634;2022-12-07T03:40:07;100820.41;;;11.45;71.63
61528;BME280;47395;42.032;-8.634;2022-12-07T03:42:12;100811.84;;;11.57;71.67
61528;BME280;47395;42.032;-8.634;2022-12-07T03:44:15;100816.03;;;11.61;71.54
61528;BME280;47395;42.032;-8.634;2022-12-07T03:46:42;100813.84;;;11.70;71.36
61528;BME280;47395;42.032;-8.634;2022-12-07T03:49:06;100812.38;;;11.46;71.47
61528;BME280;47395;42.032;-8.634;2022-12-07T03:51:18;100812.56;;;11.43;71.93
61528;BME280;47395;42.032;-8.634;2022-12-07T03:53:26;100814.94;;;11.48;71.26
61528;BME280;47395;42.032;-8.634;2022-12-07T03:55:34;100815.41;;;11.39;71.44
61528;BME280;47395;42.032;-8.634;2022-12-07T03:57:37;100804.47;;;11.46;71.39
61528;BME280;47395;42.032;-8.634;2022-12-07T03:59:40;100808.13;;;11.44;71.50
61528;BME280;47395;42.032;-8.634;2022-12-07T04:01:44;100814.41;;;11.41;71.34
61528;BME280;47395;42.032;-8.634;2022-12-07T04:03:45;100804.78;;;11.40;71.50
61528;BME280;47395;42.032;-8.634;2022-12-07T04:05:46;100812.09;;;11.35;71.64
61528;BME280;47395;42.032;-8.634;2022-12-07T04:07:47;100798.03;;;11.17;71.63
61528;BME280;47395;42.032;-8.634;2022-12-07T04:09:48;100808.38;;;11.21;71.87
61528;BME280;47395;42.032;-8.634;2022-12-07T04:11:49;100800.94;;;11.30;71.60
61528;BME280;47395;42.032;-8.634;2022-12-07T04:13:50;100802.56;;;11.32;71.89
61528;BME280;47395;42.032;-8.634;2022-12-07T04:16:09;100801.63;;;11.33;71.52
61528;BME280;47395;42.032;-8.634;2022-12-07T04:18:11;100798.13;;;11.33;71.55
61528;BME280;47395;42.032;-8.634;2022-12-07T04:20:13;100799.06;;;11.32;71.33
61528;BME280;47395;42.032;-8.634;2022-12-07T04:22:13;100801.47;;;11.36;71.64
61528;BME280;47395;42.032;-8.634;2022-12-07T04:24:15;100795.34;;;11.18;71.23
61528;BME280;47395;42.032;-8.634;2022-12-07T04:26:16;100784.63;;;11.21;71.19
61528;BME280;47395;42.032;-8.634;2022-12-07T04:28:17;100784.78;;;11.18;71.75
61528;BME280;47395;42.032;-8.634;2022-12-07T04:30:17;100789.19;;;11.18;71.64
61528;BME280;47395;42.032;-8.634;2022-12-07T04:32:18;100792.38;;;11.07;71.36
61528;BME280;47395;42.032;-8.634;2022-12-07T04:34:19;100796.88;;;11.22;71.34
61528;BME280;47395;42.032;-8.634;2022-12-07T04:36:20;100797.28;;;11.15;71.70
61528;BME280;47395;42.032;-8.634;2022-12-07T04:38:21;100796.19;;;11.19;71.72
61528;BME280;47395;42.032;-8.634;2022-12-07T04:40:22;100790.59;;;11.07;71.72
61528;BME280;47395;42.032;-8.634;2022-12-07T04:42:23;100783.63;;;11.06;71.84
61528;BME280;47395;42.032;-8.634;2022-12-07T04:44:25;100791.81;;;11.00;71.90
61528;BME280;47395;42.032;-8.634;2022-12-07T04:46:27;100787.81;;;11.10;71.77
61528;BME280;47395;42.032;-8.634;2022-12-07T04:48:29;100800.47;;;11.21;72.01
61528;BME280;47395;42.032;-8.634;2022-12-07T04:50:30;100796.97;;;11.21;71.90
61528;BME280;47395;42.032;-8.634;2022-12-07T04:52:31;100787.88;;;11.27;71.83
61528;BME280;47395;42.032;-8.634;2022-12-07T04:54:31;100782.28;;;11.33;71.58
61528;BME280;47395;42.032;-8.634;2022-12-07T04:56:32;100787.50;;;11.34;71.34
61528;BME280;47395;42.032;-8.634;2022-12-07T04:58:34;100777.47;;;11.41;71.05
61528;BME280;47395;42.032;-8.634;2022-12-07T05:00:35;100791.69;;;11.39;71.14
61528;BME280;47395;42.032;-8.634;2022-12-07T05:04:59;100783.22;;;11.32;71.29
61528;BME280;47395;42.032;-8.634;2022-12-07T05:07:00;100790.38;;;11.30;71.35
61528;BME280;47395;42.032;-8.634;2022-12-07T05:09:02;100781.53;;;11.31;70.90
61528;BME280;47395;42.032;-8.634;2022-12-07T05:11:04;100789.13;;;11.37;70.85
61528;BME280;47395;42.032;-8.634;2022-12-07T05:13:06;100789.97;;;11.38;70.92
61528;BME280;47395;42.032;-8.634;2022-12-07T05:15:09;100795.47;;;11.15;70.54
61528;BME280;47395;42.032;-8.634;2022-12-07T05:17:10;100790.38;;;11.30;70.66
61528;BME280;47395;42.032;-8.634;2022-12-07T05:19:12;100788.66;;;11.29;70.56
61528;BME280;47395;42.032;-8.634;2022-12-07T05:21:13;100790.75;;;11.22;70.93
61528;BME280;47395;42.032;-8.634;2022-12-07T05:23:13;100789.38;;;11.15;70.95
61528;BME280;47395;42.032;-8.634;2022-12-07T05:25:14;100790.38;;;11.12;71.28
61528;BME280;47395;42.032;-8.634;2022-12-07T05:27:16;100783.16;;;11.16;70.85
61528;BME280;47395;42.032;-8.634;2022-12-07T05:29:17;100788.75;;;11.09;70.61
61528;BME280;47395;42.032;-8.634;2022-12-07T05:31:18;100789.03;;;11.03;70.62
61528;BME280;47395;42.032;-8.634;2022-12-07T05:33:19;100790.28;;;10.96;70.88
61528;BME280;47395;42.032;-8.634;2022-12-07T05:35:20;100791.81;;;11.00;71.00
61528;BME280;47395;42.032;-8.634;2022-12-07T05:37:21;100784.13;;;10.78;71.04
61528;BME280;47395;42.032;-8.634;2022-12-07T05:39:22;100781.66;;;10.92;71.25
61528;BME280;47395;42.032;-8.634;2022-12-07T05:41:23;100771.75;;;10.97;71.09
61528;BME280;47395;42.032;-8.634;2022-12-07T05:43:42;100763.75;;;10.99;71.53
61528;BME280;47395;42.032;-8.634;2022-12-07T05:45:43;100764.78;;;10.96;71.47
61528;BME280;47395;42.032;-8.634;2022-12-07T05:47:44;100769.97;;;10.98;71.52
61528;BME280;47395;42.032;-8.634;2022-12-07T05:49:44;100776.91;;;10.44;71.42
61528;BME280;47395;42.032;-8.634;2022-12-07T05:51:45;100770.81;;;10.81;71.96
61528;BME280;47395;42.032;-8.634;2022-12-07T05:53:46;100763.94;;;10.96;72.04
61528;BME280;47395;42.032;-8.634;2022-12-07T05:55:47;100759.34;;;11.00;70.83
61528;BME280;47395;42.032;-8.634;2022-12-07T05:57:48;100756.19;;;11.10;71.25
61528;BME280;47395;42.032;-8.634;2022-12-07T06:00:08;100756.47;;;10.87;71.10
61528;BME280;47395;42.032;-8.634;2022-12-07T06:02:14;100750.13;;;11.08;71.08
61528;BME280;47395;42.032;-8.634;2022-12-07T06:04:16;100749.19;;;11.09;71.02
61528;BME280;47395;42.032;-8.634;2022-12-07T06:06:17;100742.19;;;11.08;70.94
61528;BME280;47395;42.032;-8.634;2022-12-07T06:08:18;100741.19;;;11.11;70.97
61528;BME280;47395;42.032;-8.634;2022-12-07T06:10:19;100746.72;;;10.89;70.84
61528;BME280;47395;42.032;-8.634;2022-12-07T06:12:20;100744.75;;;10.92;71.15
61528;BME280;47395;42.032;-8.634;2022-12-07T06:14:37;100744.75;;;10.92;71.45
61528;BME280;47395;42.032;-8.634;2022-12-07T06:16:39;100746.25;;;10.98;71.47
61528;BME280;47395;42.032;-8.634;2022-12-07T06:18:39;100745.22;;;11.01;71.62
61528;BME280;47395;42.032;-8.634;2022-12-07T06:20:40;100747.94;;;10.99;71.82
61528;BME280;47395;42.032;-8.634;2022-12-07T06:22:41;100744.28;;;10.84;71.77
61528;BME280;47395;42.032;-8.634;2022-12-07T06:24:42;100749.03;;;10.95;71.80
61528;BME280;47395;42.032;-8.634;2022-12-07T06:26:43;100738.19;;;11.01;71.67
61528;BME280;47395;42.032;-8.634;2022-12-07T06:28:44;100738.00;;;11.04;71.65
61528;BME280;47395;42.032;-8.634;2022-12-07T06:30:45;100743.00;;;11.10;71.32
61528;BME280;47395;42.032;-8.634;2022-12-07T06:32:46;100737.56;;;11.14;71.15
61528;BME280;47395;42.032;-8.634;2022-12-07T06:34:46;100732.75;;;11.04;71.00
61528;BME280;47395;42.032;-8.634;2022-12-07T06:36:48;100727.25;;;11.09;71.12
61528;BME280;47395;42.032;-8.634;2022-12-07T06:38:52;100723.53;;;10.95;71.15
61528;BME280;47395;42.032;-8.634;2022-12-07T06:40:53;100728.13;;;11.09;71.38
61528;BME280;47395;42.032;-8.634;2022-12-07T06:42:53;100718.47;;;11.08;71.25
61528;BME280;47395;42.032;-8.634;2022-12-07T06:44:54;100724.38;;;10.78;71.69
61528;BME280;47395;42.032;-8.634;2022-12-07T06:46:55;100717.94;;;10.84;72.15
61528;BME280;47395;42.032;-8.634;2022-12-07T06:48:56;100724.69;;;10.72;71.80
61528;BME280;47395;42.032;-8.634;2022-12-07T06:50:57;100730.34;;;10.82;71.61
61528;BME280;47395;42.032;-8.634;2022-12-07T06:52:58;100731.19;;;10.82;71.87
61528;BME280;47395;42.032;-8.634;2022-12-07T06:54:59;100735.53;;;10.66;72.96
61528;BME280;47395;42.032;-8.634;2022-12-07T06:57:00;100736.91;;;10.73;72.81
61528;BME280;47395;42.032;-8.634;2022-12-07T06:59:01;100729.53;;;10.62;72.52
61528;BME280;47395;42.032;-8.634;2022-12-07T07:01:02;100735.38;;;10.87;72.41
61528;BME280;47395;42.032;-8.634;2022-12-07T07:03:03;100734.06;;;10.78;71.92
61528;BME280;47395;42.032;-8.634;2022-12-07T07:05:04;100728.13;;;10.92;72.19
61528;BME280;47395;42.032;-8.634;2022-12-07T07:07:05;100718.66;;;11.05;71.95
61528;BME280;47395;42.032;-8.634;2022-12-07T07:09:06;100726.56;;;11.05;71.74
61528;BME280;47395;42.032;-8.634;2022-12-07T07:11:08;100726.44;;;11.07;71.85
61528;BME280;47395;42.032;-8.634;2022-12-07T07:13:09;100723.53;;;10.95;71.53
61528;BME280;47395;42.032;-8.634;2022-12-07T07:15:10;100730.34;;;10.82;71.73
61528;BME280;47395;42.032;-8.634;2022-12-07T07:17:12;100728.19;;;10.90;71.97
61528;BME280;47395;42.032;-8.634;2022-12-07T07:19:13;100729.13;;;10.89;71.77
61528;BME280;47395;42.032;-8.634;2022-12-07T07:21:13;100725.56;;;10.90;72.06
61528;BME280;47395;42.032;-8.634;2022-12-07T07:23:14;100727.78;;;10.98;71.67
61528;BME280;47395;42.032;-8.634;2022-12-07T07:25:15;100727.56;;;11.03;71.40
61528;BME280;47395;42.032;-8.634;2022-12-07T07:27:16;100731.50;;;11.12;71.54
61528;BME280;47395;42.032;-8.634;2022-12-07T07:29:17;100726.31;;;10.92;72.07
61528;BME280;47395;42.032;-8.634;2022-12-07T07:31:18;100724.16;;;11.01;71.91
61528;BME280;47395;42.032;-8.634;2022-12-07T07:33:19;100721.81;;;10.77;72.34
61528;BME280;47395;42.032;-8.634;2022-12-07T07:35:20;100720.19;;;10.56;73.20
61528;BME280;47395;42.032;-8.634;2022-12-07T07:37:21;100726.56;;;10.88;73.12
61528;BME280;47395;42.032;-8.634;2022-12-07T07:39:22;100723.44;;;10.79;73.79
61528;BME280;47395;42.032;-8.634;2022-12-07T07:41:23;100723.28;;;11.00;73.38
61528;BME280;47395;42.032;-8.634;2022-12-07T07:43:24;100724.75;;;11.23;73.33
61528;BME280;47395;42.032;-8.634;2022-12-07T07:45:26;100720.31;;;11.42;73.05
61528;BME280;47395;42.032;-8.634;2022-12-07T07:47:27;100717.03;;;11.54;72.12
61528;BME280;47395;42.032;-8.634;2022-12-07T07:49:29;100717.28;;;11.66;72.09
61528;BME280;47395;42.032;-8.634;2022-12-07T07:51:30;100708.34;;;11.68;71.47
61528;BME280;47395;42.032;-8.634;2022-12-07T07:53:32;100712.13;;;11.80;71.46
61528;BME280;47395;42.032;-8.634;2022-12-07T07:55:33;100717.59;;;11.93;70.93
61528;BME280;47395;42.032;-8.634;2022-12-07T07:57:38;100721.69;;;11.99;70.05
61528;BME280;47395;42.032;-8.634;2022-12-07T07:59:39;100724.72;;;11.91;69.85
61528;BME280;47395;42.032;-8.634;2022-12-07T08:01:40;100725.44;;;11.95;69.67
61528;BME280;47395;42.032;-8.634;2022-12-07T08:03:41;100725.28;;;11.98;69.81
61528;BME280;47395;42.032;-8.634;2022-12-07T08:05:41;100727.28;;;11.93;69.86
61528;BME280;47395;42.032;-8.634;2022-12-07T08:07:43;100725.00;;;12.02;69.58
61528;BME280;47395;42.032;-8.634;2022-12-07T08:09:44;100725.00;;;12.02;69.69
61528;BME280;47395;42.032;-8.634;2022-12-07T08:11:47;100718.25;;;11.97;70.44
61528;BME280;47395;42.032;-8.634;2022-12-07T08:13:48;100718.19;;;11.98;69.67
61528;BME280;47395;42.032;-8.634;2022-12-07T08:15:49;100712.31;;;11.93;69.60
61528;BME280;47395;42.032;-8.634;2022-12-07T08:17:50;100714.50;;;11.85;69.82
61528;BME280;47395;42.032;-8.634;2022-12-07T08:19:51;100715.09;;;11.74;69.69
61528;BME280;47395;42.032;-8.634;2022-12-07T08:21:52;100710.13;;;11.52;70.55
61528;BME280;47395;42.032;-8.634;2022-12-07T08:23:53;100714.00;;;11.44;71.66
61528;BME280;47395;42.032;-8.634;2022-12-07T08:25:53;100708.88;;;10.90;71.85
61528;BME280;47395;42.032;-8.634;2022-12-07T08:27:54;100706.31;;;11.06;72.60
61528;BME280;47395;42.032;-8.634;2022-12-07T08:29:55;100709.47;;;10.95;72.45
61528;BME280;47395;42.032;-8.634;2022-12-07T08:31:56;100716.16;;;11.02;72.49
61528;BME280;47395;42.032;-8.634;2022-12-07T08:33:57;100723.28;;;11.18;73.01
61528;BME280;47395;42.032;-8.634;2022-12-07T08:36:02;100718.78;;;11.20;73.63
61528;BME280;47395;42.032;-8.634;2022-12-07T08:38:03;100724.91;;;11.38;73.20
61528;BME280;47395;42.032;-8.634;2022-12-07T08:40:06;100728.28;;;11.40;72.75
61528;BME280;47395;42.032;-8.634;2022-12-07T08:42:07;100730.16;;;11.56;72.06
61528;BME280;47395;42.032;-8.634;2022-12-07T08:44:08;100726.16;;;11.65;72.12
61528;BME280;47395;42.032;-8.634;2022-12-07T08:46:17;100722.06;;;11.75;71.71
61528;BME280;47395;42.032;-8.634;2022-12-07T08:48:20;100721.25;;;11.91;71.35
61528;BME280;47395;42.032;-8.634;2022-12-07T08:50:24;100716.91;;;11.90;70.65
61528;BME280;47395;42.032;-8.634;2022-12-07T08:52:25;100729.25;;;11.89;70.83
61528;BME280;47395;42.032;-8.634;2022-12-07T08:54:27;100728.56;;;11.85;70.76
61528;BME280;47395;42.032;-8.634;2022-12-07T08:56:29;100724.78;;;11.73;70.93
61528;BME280;47395;42.032;-8.634;2022-12-07T08:58:30;100728.28;;;11.74;70.95
61528;BME280;47395;42.032;-8.634;2022-12-07T09:00:30;100730.16;;;11.72;71.21
61528;BME280;47395;42.032;-8.634;2022-12-07T09:02:32;100724.25;;;11.67;71.00
61528;BME280;47395;42.032;-8.634;2022-12-07T09:04:32;100716.97;;;11.72;71.20
61528;BME280;47395;42.032;-8.634;2022-12-07T09:06:33;100722.59;;;11.82;71.01
61528;BME280;47395;42.032;-8.634;2022-12-07T09:08:41;100723.88;;;11.91;70.81
61528;BME280;47395;42.032;-8.634;2022-12-07T09:10:43;100722.81;;;11.61;70.85
61528;BME280;47395;42.032;-8.634;2022-12-07T09:12:43;100720.91;;;11.97;70.50
61528;BME280;47395;42.032;-8.634;2022-12-07T09:14:44;100718.81;;;12.20;70.30
61528;BME280;47395;42.032;-8.634;2022-12-07T09:16:45;100719.81;;;12.17;70.03
61528;BME280;47395;42.032;-8.634;2022-12-07T09:18:46;100711.50;;;12.25;69.95
61528;BME280;47395;42.032;-8.634;2022-12-07T09:20:50;100711.72;;;12.36;69.87
61528;BME280;47395;42.032;-8.634;2022-12-07T09:22:51;100713.66;;;12.49;69.55
61528;BME280;47395;42.032;-8.634;2022-12-07T09:24:52;100714.50;;;12.65;69.16
61528;BME280;47395;42.032;-8.634;2022-12-07T09:26:53;100716.03;;;12.70;68.88
61528;BME280;47395;42.032;-8.634;2022-12-07T09:28:54;100719.16;;;12.76;68.93
61528;BME280;47395;42.032;-8.634;2022-12-07T09:30:55;100722.22;;;12.69;68.97
61528;BME280;47395;42.032;-8.634;2022-12-07T09:32:57;100726.19;;;12.61;69.09
61528;BME280;47395;42.032;-8.634;2022-12-07T09:34:58;100723.88;;;12.55;69.55
61528;BME280;47395;42.032;-8.634;2022-12-07T09:37:00;100724.06;;;12.52;69.25
61528;BME280;47395;42.032;-8.634;2022-12-07T09:39:03;100728.00;;;12.45;69.67
61528;BME280;47395;42.032;-8.634;2022-12-07T09:41:07;100722.63;;;12.46;69.77
61528;BME280;47395;42.032;-8.634;2022-12-07T09:43:17;100724.94;;;12.36;69.82
61528;BME280;47395;42.032;-8.634;2022-12-07T09:45:19;100720.75;;;12.48;69.84
61528;BME280;47395;42.032;-8.634;2022-12-07T09:47:22;100719.38;;;12.57;69.83
61528;BME280;47395;42.032;-8.634;2022-12-07T09:49:24;100709.72;;;12.72;68.69
61528;BME280;47395;42.032;-8.634;2022-12-07T09:51:27;100703.25;;;12.92;67.87
61528;BME280;47395;42.032;-8.634;2022-12-07T09:53:35;100703.66;;;13.15;67.31
61528;BME280;47395;42.032;-8.634;2022-12-07T09:55:38;100701.59;;;13.35;66.67
61528;BME280;47395;42.032;-8.634;2022-12-07T09:57:41;100692.56;;;13.54;65.70
61528;BME280;47395;42.032;-8.634;2022-12-07T09:59:43;100685.34;;;13.70;65.53
61528;BME280;47395;42.032;-8.634;2022-12-07T10:01:47;100691.91;;;13.65;65.65
61528;BME280;47395;42.032;-8.634;2022-12-07T10:03:54;100695.06;;;13.41;67.25
61528;BME280;47395;42.032;-8.634;2022-12-07T10:05:56;100690.56;;;13.43;67.19
61528;BME280;47395;42.032;-8.634;2022-12-07T10:07:57;100690.00;;;13.67;67.23
61528;BME280;47395;42.032;-8.634;2022-12-07T10:09:58;100688.56;;;13.61;67.79
61528;BME280;47395;42.032;-8.634;2022-12-07T10:12:08;100688.41;;;13.50;68.45
61528;BME280;47395;42.032;-8.634;2022-12-07T10:14:13;100686.47;;;13.37;68.74
61528;BME280;47395;42.032;-8.634;2022-12-07T10:16:37;100678.75;;;13.49;69.06
61528;BME280;47395;42.032;-8.634;2022-12-07T10:18:40;100678.28;;;13.71;68.82
61528;BME280;47395;42.032;-8.634;2022-12-07T10:20:46;100672.22;;;13.69;68.75
61528;BME280;47395;42.032;-8.634;2022-12-07T10:25:19;100670.34;;;13.56;69.03
61528;BME280;47395;42.032;-8.634;2022-12-07T10:29:36;100665.53;;;13.63;68.01
61528;BME280;47395;42.032;-8.634;2022-12-07T10:31:39;100666.69;;;14.01;68.81
61528;BME280;47395;42.032;-8.634;2022-12-07T10:33:51;100671.47;;;14.09;67.61
61528;BME280;47395;42.032;-8.634;2022-12-07T10:35:52;100674.03;;;14.38;66.92
61528;BME280;47395;42.032;-8.634;2022-12-07T10:37:55;100665.56;;;14.46;66.49
61528;BME280;47395;42.032;-8.634;2022-12-07T10:39:56;100654.03;;;14.60;66.40
61528;BME280;47395;42.032;-8.634;2022-12-07T10:42:02;100652.59;;;14.82;65.76
61528;BME280;47395;42.032;-8.634;2022-12-07T10:44:04;100653.47;;;15.08;65.06
61528;BME280;47395;42.032;-8.634;2022-12-07T10:58:44;100623.50;;;18.26;56.11
61528;BME280;47395;42.032;-8.634;2022-12-07T11:01:31;100614.69;;;19.62;53.54
61528;BME280;47395;42.032;-8.634;2022-12-07T11:11:40;100594.59;;;24.16;41.77
61528;BME280;47395;42.032;-8.634;2022-12-07T11:16:39;100588.53;;;26.45;37.19
61528;BME280;47395;42.032;-8.634;2022-12-07T11:24:09;100580.97;;;26.17;36.75
61528;BME280;47395;42.032;-8.634;2022-12-07T11:29:26;100588.50;;;27.51;34.09
61528;BME280;47395;42.032;-8.634;2022-12-07T11:34:00;100580.28;;;25.77;36.42
61528;BME280;47395;42.032;-8.634;2022-12-07T11:36:33;100579.69;;;24.78;38.33
61528;BME280;47395;42.032;-8.634;2022-12-07T11:38:48;100569.19;;;24.18;40.43